This is the latest recevied weather packets stored in our database for station/object F5MAP-5. If no packets are shown the sender has not sent any weather packets the latest 10 day(s).
| Time | Temp. | Humidity | Pressure | Rain* | Wind** | Luminosity | Snow |
|---|---|---|---|---|---|---|---|
| 1787621532 | 16.11° C | 89% | 1011 hPa | 0 mm | - | 0 W/m² | - |
| 1787620932 | 16.11° C | 88% | 1010.8 hPa | 0 mm | - | 0 W/m² | - |
| 1787620332 | 16.11° C | 88% | 1010.6 hPa | 0 mm | - | 0 W/m² | - |
| 1787619732 | 16.11° C | 87% | 1010.3 hPa | 0 mm | - | 0 W/m² | - |
| 1787619132 | 16.11° C | 87% | 1010.3 hPa | 0 mm | - | 0 W/m² | - |
| 1787618532 | 16.11° C | 87% | 1010.3 hPa | 0 mm | - | 0 W/m² | - |
| 1787617932 | 16.11° C | 87% | 1010.4 hPa | 0 mm | - | 0 W/m² | - |
| 1787617332 | 16.11° C | 86% | 1009.9 hPa | 0 mm | - | 0 W/m² | - |
| 1787616732 | 16.11° C | 86% | 1010.1 hPa | 0.25 mm | - | 0 W/m² | - |
| 1787616132 | 16.11° C | 86% | 1010.3 hPa | 0.25 mm | - | 0 W/m² | - |
| 1787615532 | 16.67° C | 86% | 1010.7 hPa | 0.25 mm | - | 0 W/m² | - |
| 1787614932 | 16.67° C | 85% | 1010.9 hPa | 0.25 mm | - | 0 W/m² | - |
| 1787614332 | 17.22° C | 72% | 1012.4 hPa | 0 mm | - | 0 W/m² | - |
| 1787613733 | 17.78° C | 83% | 1010.1 hPa | 0.25 mm | - | 0 W/m² | - |
| 1787613132 | 17.78° C | 82% | 1010.6 hPa | 0 mm | - | 0 W/m² | - |
| 1787612532 | 18.33° C | 81% | 1011.1 hPa | 0 mm | - | 0 W/m² | - |
| 1787611932 | 18.33° C | 79% | 1011.6 hPa | 0 mm | - | 0 W/m² | - |
| 1787611332 | 18.33° C | 78% | 1012.2 hPa | 0 mm | - | 0 W/m² | - |
| 1787610732 | 17.78° C | 76% | 1013 hPa | 0 mm | - | 0 W/m² | - |
| 1787610132 | 17.78° C | 73% | 1013 hPa | 0 mm | - | 0 W/m² | - |
| 1787609534 | 17.22° C | 72% | 1012.9 hPa | 0 mm | - | 0 W/m² | - |
| 1787608934 | 17.22° C | 73% | 1012.8 hPa | 0 mm | - | 0 W/m² | - |
| 1787608334 | 17.22° C | 72% | 1011.3 hPa | 0 mm | - | 0 W/m² | - |
| 1787607734 | 17.22° C | 72% | 1010.8 hPa | 0 mm | - | 0 W/m² | - |
| 1787607134 | 17.22° C | 72% | 1010.8 hPa | 0 mm | - | 0 W/m² | - |
* Rain latest hour (hover to see other rain measurements)
** Current wind speed in m/s (hover to see current wind gust speed)